Time;durP1;ratioP1;P1;durP2;ratioP2;P2;SDS_P1;SDS_P2;PMS_P1;PMS_P2;Temp;Humidity;BMP_temperature;BMP_pressure;BME280_temperature;BME280_humidity;BME280_pressure;Samples;Min_cycle;Max_cycle;Signal;HPM_P1;HPM_P2
2020/12/02 00:00:08;;;;;;;23.52;14.27;;;;;;;1.03;71.45;101823.47;685686;28;21497;-61
2020/12/02 00:00:33;;;;;;;24.55;14.77;;;;;;;1.02;71.37;101816.44;682391;28;118660;-61
2020/12/02 00:00:55;;;;;;;24.77;14.55;;;;;;;1.02;71.38;101819.13;686304;28;10790;-61
2020/12/02 00:01:18;;;;;;;24.80;14.95;;;;;;;1.01;71.48;101820.03;684221;28;44377;-61
2020/12/02 00:01:40;;;;;;;26.35;15.05;;;;;;;1.01;71.37;101819.19;678532;29;70573;-61
2020/12/02 00:02:01;;;;;;;25.88;14.73;;;;;;;1.01;71.44;101820.03;679897;29;39729;-61
2020/12/02 00:02:29;;;;;;;23.75;14.73;;;;;;;1.01;71.57;101816.53;680169;29;22410;-61
2020/12/02 00:02:54;;;;;;;25.98;14.98;;;;;;;1.00;71.51;101820.97;677504;29;101184;-60
2020/12/02 00:03:19;;;;;;;24.48;14.30;;;;;;;1.00;71.50;101814.81;676927;29;115158;-61
2020/12/02 00:03:45;;;;;;;26.98;15.13;;;;;;;0.99;71.38;101818.44;681816;28;115883;-62
2020/12/02 00:04:10;;;;;;;25.33;14.93;;;;;;;0.98;71.64;101816.72;681808;28;137949;-61
2020/12/02 00:04:31;;;;;;;25.73;14.38;;;;;;;0.98;71.70;101822.88;682610;28;115003;-62
2020/12/02 00:04:53;;;;;;;26.70;14.23;;;;;;;0.98;71.76;101817.56;684901;28;21570;-61
2020/12/02 00:05:16;;;;;;;26.45;14.70;;;;;;;0.99;71.53;101818.44;684285;28;46551;-61
2020/12/02 00:05:40;;;;;;;24.98;15.23;;;;;;;1.00;71.56;101825.44;682431;28;69128;-62
2020/12/02 00:06:03;;;;;;;25.58;15.30;;;;;;;0.99;71.64;101821.94;681807;28;115931;-62
2020/12/02 00:06:26;;;;;;;24.63;14.93;;;;;;;0.98;71.76;101814.91;684554;28;44365;-60
2020/12/02 00:06:49;;;;;;;23.88;14.82;;;;;;;0.99;71.77;101816.63;684496;28;47605;-61
2020/12/02 00:07:11;;;;;;;23.70;14.68;;;;;;;0.99;71.82;101818.44;684199;28;69423;-59
2020/12/02 00:07:32;;;;;;;26.35;14.68;;;;;;;0.98;71.79;101819.38;684172;28;44412;-61
2020/12/02 00:08:00;;;;;;;26.70;14.85;;;;;;;0.98;71.73;101809.59;685291;28;22445;-61
2020/12/02 00:08:25;;;;;;;23.23;13.93;;;;;;;1.00;71.80;101820.13;681361;28;136387;-61
2020/12/02 00:08:51;;;;;;;24.23;14.20;;;;;;;0.99;71.72;101819.28;681749;28;138450;-62
2020/12/02 00:09:15;;;;;;;25.30;14.73;;;;;;;0.99;71.76;101816.63;681630;28;138557;-60
2020/12/02 00:09:36;;;;;;;24.48;14.43;;;;;;;0.99;71.59;101819.28;683130;28;93456;-61
2020/12/02 00:09:58;;;;;;;25.70;14.83;;;;;;;0.99;71.71;101819.28;685734;28;21629;-61
2020/12/02 00:10:19;;;;;;;25.73;14.93;;;;;;;1.00;71.66;101815.66;685183;28;8152;-62
2020/12/02 00:10:41;;;;;;;25.77;15.48;;;;;;;1.02;71.64;101821.78;684358;28;46356;-61
2020/12/02 00:11:06;;;;;;;25.30;14.90;;;;;;;1.02;71.86;101810.25;685289;28;21568;-61
2020/12/02 00:11:28;;;;;;;25.23;14.82;;;;;;;1.01;71.77;101817.38;682471;28;116225;-61
2020/12/02 00:11:51;;;;;;;25.35;14.65;;;;;;;0.99;71.68;101805.97;684580;28;41983;-61
2020/12/02 00:12:12;;;;;;;28.25;14.82;;;;;;;0.99;71.60;101821.09;684105;28;66147;-60
2020/12/02 00:12:34;;;;;;;28.20;14.95;;;;;;;0.99;71.53;101813.13;685574;28;21715;-62
2020/12/02 00:12:55;;;;;;;27.50;14.65;;;;;;;0.99;71.44;101816.63;685298;28;38518;-61
2020/12/02 00:13:21;;;;;;;25.17;14.55;;;;;;;0.99;71.55;101813.97;686283;28;3749;-61
2020/12/02 00:13:44;;;;;;;24.60;14.05;;;;;;;0.99;71.41;101815.78;681654;28;136189;-62
2020/12/02 00:14:08;;;;;;;25.52;14.32;;;;;;;0.99;71.50;101818.44;682940;28;90727;-61
2020/12/02 00:14:30;;;;;;;24.58;14.38;;;;;;;0.97;71.49;101813.22;680457;28;69345;-62
2020/12/02 00:14:52;;;;;;;25.58;14.75;;;;;;;0.97;71.38;101815.88;681676;28;45263;-61
2020/12/02 00:15:13;;;;;;;25.38;14.43;;;;;;;0.96;71.58;101815.97;681682;28;47266;-61
2020/12/02 00:15:34;;;;;;;23.23;13.75;;;;;;;0.96;71.66;101822.13;682519;28;23851;-62
2020/12/02 00:15:56;;;;;;;25.17;14.57;;;;;;;0.95;71.35;101824.88;681690;28;46392;-61
2020/12/02 00:16:20;;;;;;;27.20;15.77;;;;;;;0.93;71.61;101824.97;683499;28;12636;-61
2020/12/02 00:16:42;;;;;;;26.42;15.27;;;;;;;0.92;71.59;101811.75;682859;28;92279;-62
2020/12/02 00:17:03;;;;;;;26.77;15.18;;;;;;;0.92;71.59;101819.72;684661;28;46183;-61
2020/12/02 00:17:24;;;;;;;27.05;15.23;;;;;;;0.93;71.55;101819.63;685577;28;21558;-61
2020/12/02 00:17:45;;;;;;;26.85;14.63;;;;;;;0.91;71.44;101816.22;685326;28;23636;-61
2020/12/02 00:18:07;;;;;;;26.60;14.73;;;;;;;0.91;71.48;101824.19;684976;28;44218;-62
2020/12/02 00:18:29;;;;;;;25.55;14.55;;;;;;;0.90;71.54;101811.84;685558;28;22412;-62
2020/12/02 00:18:51;;;;;;;24.10;14.55;;;;;;;0.89;71.48;101816.31;684526;28;46366;-60
2020/12/02 00:19:13;;;;;;;26.00;15.65;;;;;;;0.89;71.54;101818.97;683938;28;69269;-62
2020/12/02 00:19:34;;;;;;;28.30;15.80;;;;;;;0.89;71.68;101812.75;685611;28;21532;-60
2020/12/02 00:19:56;;;;;;;26.50;15.05;;;;;;;0.88;71.52;101811.91;685843;28;22333;-61
2020/12/02 00:20:17;;;;;;;27.50;15.85;;;;;;;0.89;71.65;101812.75;684442;28;45236;-61
2020/12/02 00:20:38;;;;;;;25.33;14.85;;;;;;;0.89;71.64;101815.44;685247;28;21582;-61
2020/12/02 00:21:00;;;;;;;24.75;14.18;;;;;;;0.88;71.53;101817.25;684423;28;46409;-61
2020/12/02 00:21:22;;;;;;;27.48;14.68;;;;;;;0.88;71.67;101819.06;685376;28;23644;-61
2020/12/02 00:22:02;;;;;;;25.90;14.60;;;;;;;0.87;71.67;101814.66;684419;28;56324;-62
2020/12/02 00:22:23;;;;;;;24.20;14.10;;;;;;;0.88;71.60;101813.72;681673;28;136006;-62
2020/12/02 00:22:45;;;;;;;25.67;14.48;;;;;;;0.87;71.62;101818.16;684515;28;46339;-61
2020/12/02 00:23:07;;;;;;;26.30;15.45;;;;;;;0.87;71.52;101818.16;685712;28;22433;-60
2020/12/02 00:23:28;;;;;;;24.92;15.18;;;;;;;0.87;71.63;101814.66;684891;28;46519;-62
2020/12/02 00:23:51;;;;;;;25.85;15.30;;;;;;;0.87;71.66;101817.31;685639;28;22528;-62
2020/12/02 00:24:12;;;;;;;26.58;14.70;;;;;;;0.86;71.75;101815.59;683096;28;92287;-62
2020/12/02 00:24:35;;;;;;;26.77;14.80;;;;;;;0.86;71.77;101812.94;685493;28;23564;-61
2020/12/02 00:24:56;;;;;;;26.38;15.45;;;;;;;0.86;71.81;101815.59;684409;28;46564;-62
2020/12/02 00:25:18;;;;;;;28.77;15.25;;;;;;;0.85;71.83;101820.06;679725;29;21514;-62
2020/12/02 00:25:39;;;;;;;25.63;13.90;;;;;;;0.85;71.71;101819.22;678888;28;46004;-61
2020/12/02 00:26:00;;;;;;;26.00;14.45;;;;;;;0.84;71.84;101814.84;680286;29;24334;-62
2020/12/02 00:26:23;;;;;;;25.30;14.68;;;;;;;0.84;71.69;101817.50;679427;29;42741;-60
2020/12/02 00:26:44;;;;;;;26.95;15.32;;;;;;;0.82;71.99;101817.59;679709;29;44404;-61
2020/12/02 00:27:07;;;;;;;25.27;14.98;;;;;;;0.83;72.05;101814.00;680713;28;46287;-61
2020/12/02 00:27:30;;;;;;;23.40;14.57;;;;;;;0.84;71.92;101817.50;684044;28;70145;-61
2020/12/02 00:27:51;;;;;;;25.52;14.73;;;;;;;0.84;71.91;101809.53;683833;28;46205;-60
2020/12/02 00:28:13;;;;;;;25.63;14.98;;;;;;;0.84;71.83;101809.53;685537;28;23241;-61
2020/12/02 00:28:35;;;;;;;24.17;15.02;;;;;;;0.84;71.94;101812.19;683876;28;69229;-61
2020/12/02 00:28:57;;;;;;;25.17;14.82;;;;;;;0.84;71.68;101817.50;685295;28;23314;-62
2020/12/02 00:29:19;;;;;;;21.83;13.50;;;;;;;0.82;71.67;101812.25;683831;28;68315;-62
2020/12/02 00:29:41;;;;;;;23.05;13.73;;;;;;;0.83;71.70;101819.31;685665;28;23444;-62
2020/12/02 00:30:05;;;;;;;22.63;14.15;;;;;;;0.83;71.69;101815.78;684408;28;45245;-60
2020/12/02 00:30:27;;;;;;;22.65;13.98;;;;;;;0.83;71.80;101816.66;682112;28;113661;-61
2020/12/02 00:30:48;;;;;;;23.88;14.20;;;;;;;0.86;71.74;101810.28;685437;28;23486;-61
2020/12/02 00:31:10;;;;;;;25.27;14.90;;;;;;;0.87;71.73;101812.00;684940;28;46423;-61
2020/12/02 00:31:32;;;;;;;25.10;15.30;;;;;;;0.88;71.70;101814.59;684914;28;45774;-61
2020/12/02 00:31:53;;;;;;;25.25;15.00;;;;;;;0.90;71.94;101807.34;684938;28;17953;-61
2020/12/02 00:32:23;;;;;;;28.10;15.30;;;;;;;0.92;71.91;101803.75;684355;28;46490;-61
2020/12/02 00:32:46;;;;;;;23.45;14.23;;;;;;;0.94;72.03;101807.19;682015;28;136933;-61
2020/12/02 00:33:10;;;;;;;26.08;14.38;;;;;;;0.94;72.07;101810.72;683972;28;69389;-61
2020/12/02 00:33:31;;;;;;;25.98;14.70;;;;;;;0.95;72.05;101803.59;683041;28;90691;-61
2020/12/02 00:33:52;;;;;;;27.50;15.20;;;;;;;0.96;71.90;101807.97;685688;28;23686;-62
2020/12/02 00:34:14;;;;;;;26.33;14.68;;;;;;;0.97;72.03;101815.00;684908;28;46330;-62
2020/12/02 00:34:35;;;;;;;24.33;14.13;;;;;;;0.98;71.91;101804.25;685582;28;22524;-62
2020/12/02 00:34:58;;;;;;;23.85;14.50;;;;;;;1.00;72.03;101807.69;684382;28;46303;-62
2020/12/02 00:35:21;;;;;;;26.13;14.77;;;;;;;1.01;71.87;101803.22;680802;28;67336;-62
2020/12/02 00:35:42;;;;;;;24.95;14.80;;;;;;;1.01;71.71;101809.41;680176;28;69229;-62
2020/12/02 00:36:04;;;;;;;22.85;14.90;;;;;;;1.02;71.85;101813.78;683290;28;14313;-62
2020/12/02 00:36:29;;;;;;;24.48;14.82;;;;;;;1.03;71.88;101802.19;682612;28;38908;-62
2020/12/02 00:36:50;;;;;;;24.42;14.40;;;;;;;1.06;71.79;101809.13;682429;28;40171;-60
2020/12/02 00:37:12;;;;;;;25.80;14.65;;;;;;;1.06;71.87;101806.47;684724;28;9200;-61
2020/12/02 00:37:34;;;;;;;25.85;15.02;;;;;;;1.08;71.84;101804.56;685571;28;1046;-61
2020/12/02 00:37:55;;;;;;;26.08;14.95;;;;;;;1.09;71.94;101803.63;685152;28;41245;-60
2020/12/02 00:38:19;;;;;;;25.55;14.98;;;;;;;1.10;71.79;101810.69;685492;28;13129;-60
2020/12/02 00:38:40;;;;;;;26.58;14.88;;;;;;;1.12;71.86;101811.44;683712;28;69512;-62
2020/12/02 00:39:01;;;;;;;24.70;14.05;;;;;;;1.12;71.48;101799.94;686517;28;1232;-62
2020/12/02 00:39:23;;;;;;;26.23;14.60;;;;;;;1.13;71.58;101796.31;685154;28;43592;-60
2020/12/02 00:39:45;;;;;;;23.98;14.32;;;;;;;1.13;71.55;101805.19;684238;28;46417;-60
2020/12/02 00:40:06;;;;;;;26.10;14.32;;;;;;;1.13;71.54;101806.97;685809;28;9422;-62
2020/12/02 00:40:27;;;;;;;24.42;14.40;;;;;;;1.15;71.66;101813.09;685094;28;30694;-61
2020/12/02 00:40:50;;;;;;;25.70;14.98;;;;;;;1.14;71.50;101801.56;685695;28;22353;-62
2020/12/02 00:41:12;;;;;;;23.55;14.82;;;;;;;1.15;71.43;101815.75;683928;28;58439;-62
2020/12/02 00:41:34;;;;;;;25.42;14.82;;;;;;;1.16;71.54;101807.66;679015;29;44658;-61
2020/12/02 00:42:03;;;;;;;25.42;15.05;;;;;;;1.16;71.26;101801.47;678446;29;60428;-61
2020/12/02 00:42:25;;;;;;;25.85;15.23;;;;;;;1.14;71.35;101804.22;678995;28;45365;-59
2020/12/02 00:42:47;;;;;;;23.33;14.73;;;;;;;1.15;71.49;101811.25;680858;28;19058;-61
2020/12/02 00:43:08;;;;;;;25.52;15.27;;;;;;;1.15;71.38;101800.63;679918;29;41565;-61
2020/12/02 00:43:30;;;;;;;24.63;14.77;;;;;;;1.15;71.25;101813.94;679890;29;23061;-63
2020/12/02 00:43:51;;;;;;;25.13;15.02;;;;;;;1.15;71.46;101803.28;679358;29;38965;-62
2020/12/02 00:44:14;;;;;;;26.75;14.85;;;;;;;1.16;71.34;101813.00;681539;28;8862;-61
2020/12/02 00:44:36;;;;;;;25.70;14.88;;;;;;;1.16;71.24;101805.00;683203;28;38266;-61
2020/12/02 00:44:58;;;;;;;25.92;15.23;;;;;;;1.16;71.29;101807.66;684995;28;45249;-60
2020/12/02 00:45:19;;;;;;;25.27;15.27;;;;;;;1.16;71.21;101813.00;686374;28;12399;-61
2020/12/02 00:45:40;;;;;;;25.25;14.98;;;;;;;1.14;71.29;101804.22;683931;28;46333;-62
2020/12/02 00:46:04;;;;;;;24.65;14.75;;;;;;;1.15;71.10;101805.09;682630;28;21538;-62
2020/12/02 00:46:25;;;;;;;27.02;15.40;;;;;;;1.17;71.36;101803.19;681443;28;69597;-61
2020/12/02 00:46:47;;;;;;;25.25;14.27;;;;;;;1.17;71.02;101809.38;682503;28;44369;-61
2020/12/02 00:47:10;;;;;;;24.65;14.98;;;;;;;1.19;71.09;101806.63;681882;28;45253;-62
2020/12/02 00:47:32;;;;;;;22.80;14.32;;;;;;;1.17;70.87;101804.03;681704;28;67860;-62
2020/12/02 00:47:53;;;;;;;24.35;14.35;;;;;;;1.16;71.00;101806.78;683280;28;46306;-62
2020/12/02 00:48:18;;;;;;;25.73;15.52;;;;;;;1.17;71.02;101808.50;681128;29;1180;-61
2020/12/02 00:48:42;;;;;;;26.58;15.00;;;;;;;1.16;71.01;101801.47;677317;28;115432;-61
2020/12/02 00:49:04;;;;;;;24.67;15.25;;;;;;;1.19;71.01;101809.28;678037;28;112491;-61
2020/12/02 00:49:25;;;;;;;25.90;14.85;;;;;;;1.20;71.01;101805.69;679970;28;46340;-59
2020/12/02 00:49:47;;;;;;;25.65;14.43;;;;;;;1.21;70.87;101802.06;681562;29;22372;-61
2020/12/02 00:50:10;;;;;;;24.42;14.55;;;;;;;1.21;70.82;101810.91;680302;28;46416;-62
2020/12/02 00:50:31;;;;;;;24.48;14.45;;;;;;;1.21;70.90;101804.75;679084;29;69413;-61
2020/12/02 00:50:53;;;;;;;24.15;14.68;;;;;;;1.21;70.68;101810.91;679344;29;22314;-61
2020/12/02 00:51:15;;;;;;;24.92;14.75;;;;;;;1.23;70.73;101805.50;678426;29;45232;-61
2020/12/02 00:51:36;;;;;;;25.38;15.02;;;;;;;1.23;70.87;101800.19;677044;29;43825;-61
2020/12/02 00:51:58;;;;;;;25.13;14.88;;;;;;;1.24;70.82;101809.88;678729;29;22524;-62
2020/12/02 00:52:19;;;;;;;25.10;15.13;;;;;;;1.24;70.79;101807.22;681491;28;46393;-61
2020/12/02 00:52:41;;;;;;;23.15;13.98;;;;;;;1.23;70.59;101811.66;682189;28;46546;-61
2020/12/02 00:53:04;;;;;;;23.55;14.30;;;;;;;1.24;70.73;101808.06;680391;29;23478;-61
2020/12/02 00:53:28;;;;;;;25.40;14.82;;;;;;;1.24;70.57;101813.38;677675;29;90725;-62
2020/12/02 00:53:50;;;;;;;26.20;14.65;;;;;;;1.22;70.80;101804.66;678983;29;69434;-62
2020/12/02 00:54:11;;;;;;;24.35;14.43;;;;;;;1.22;70.45;101807.31;679003;29;45235;-61
2020/12/02 00:54:33;;;;;;;24.60;14.23;;;;;;;1.22;70.62;101806.44;680668;29;21816;-60
2020/12/02 00:54:55;;;;;;;25.90;15.02;;;;;;;1.21;70.39;101810.91;679441;29;46431;-61
2020/12/02 00:55:17;;;;;;;24.80;15.02;;;;;;;1.19;70.66;101802.16;679012;29;67497;-59
2020/12/02 00:55:39;;;;;;;24.30;14.97;;;;;;;1.19;70.52;101806.63;676081;29;24394;-60
2020/12/02 00:56:02;;;;;;;25.58;15.10;;;;;;;1.19;70.55;101811.94;672998;29;46413;-62
2020/12/02 00:56:29;;;;;;;27.35;15.02;;;;;;;1.20;70.71;101803.00;672174;29;137735;-62
2020/12/02 00:56:51;;;;;;;26.17;14.98;;;;;;;1.20;70.60;101803.84;677156;29;46503;-61
2020/12/02 00:57:13;;;;;;;25.27;14.35;;;;;;;1.20;70.67;101813.66;678061;29;46274;-61
2020/12/02 00:57:36;;;;;;;28.52;15.07;;;;;;;1.19;70.41;101809.28;675948;29;69136;-61
2020/12/02 00:57:58;;;;;;;26.80;14.85;;;;;;;1.17;70.54;101805.84;679700;29;45252;-61
2020/12/02 00:58:24;;;;;;;24.60;14.60;;;;;;;1.15;70.44;101813.09;681424;28;45235;-61
2020/12/02 00:58:50;;;;;;;23.08;14.27;;;;;;;1.14;70.64;101808.69;678265;28;161157;-62
2020/12/02 00:59:18;;;;;;;24.50;15.05;;;;;;;1.12;70.66;101816.75;679196;28;131582;-61
2020/12/02 00:59:40;;;;;;;25.70;14.82;;;;;;;1.12;70.62;101823.91;682116;28;137668;-61
2020/12/02 01:00:07;;;;;;;27.13;14.98;;;;;;;1.10;70.71;101815.13;685057;28;44478;-60
2020/12/02 01:00:33;;;;;;;25.20;14.73;;;;;;;1.09;70.66;101811.63;681230;28;161759;-62
2020/12/02 01:00:55;;;;;;;23.63;14.23;;;;;;;1.07;70.49;101824.16;679609;28;118963;-61
2020/12/02 01:01:21;;;;;;;23.35;14.30;;;;;;;1.06;70.65;101823.28;682047;28;46591;-59
2020/12/02 01:01:50;;;;;;;24.85;14.80;;;;;;;1.04;70.72;101819.88;679314;28;125333;-62
2020/12/02 01:02:17;;;;;;;23.35;13.55;;;;;;;1.02;70.62;101826.22;678698;28;157582;-61
2020/12/02 01:02:44;;;;;;;25.75;14.80;;;;;;;1.02;70.77;101831.53;679683;28;129414;-61
2020/12/02 01:03:11;;;;;;;26.42;14.77;;;;;;;1.01;70.71;101822.69;682114;28;137841;-61
2020/12/02 01:03:34;;;;;;;26.88;14.70;;;;;;;1.01;70.90;101828.03;682278;28;136659;-61
2020/12/02 01:03:57;;;;;;;26.48;14.68;;;;;;;1.01;71.04;101822.69;684498;28;65552;-62
2020/12/02 01:04:19;;;;;;;27.75;15.35;;;;;;;1.03;70.91;101819.97;683398;28;90450;-61
2020/12/02 01:04:43;;;;;;;26.73;15.68;;;;;;;1.03;71.08;101819.97;685183;28;43927;-61
2020/12/02 01:05:06;;;;;;;25.65;14.63;;;;;;;1.05;71.10;101818.94;683978;28;69707;-60
2020/12/02 01:05:29;;;;;;;27.80;14.70;;;;;;;1.07;71.14;101821.50;684080;28;67990;-61
2020/12/02 01:05:52;;;;;;;26.88;15.27;;;;;;;1.07;71.05;101819.69;683642;28;89267;-60
2020/12/02 01:06:14;;;;;;;26.50;14.95;;;;;;;1.06;71.01;101817.13;684231;28;67430;-61
2020/12/02 01:06:35;;;;;;;25.27;13.95;;;;;;;1.05;70.91;101818.06;685322;28;46352;-60
2020/12/02 01:06:57;;;;;;;25.05;14.43;;;;;;;1.06;70.97;101819.78;685245;28;46715;-62
2020/12/02 01:07:19;;;;;;;25.67;14.68;;;;;;;1.04;71.03;101825.19;685101;28;23509;-62
2020/12/02 01:07:42;;;;;;;25.55;15.40;;;;;;;1.02;71.05;101811.13;685044;28;46311;-61
2020/12/02 01:08:20;;;;;;;27.05;15.02;;;;;;;1.01;71.04;101819.19;683829;28;69249;-62
2020/12/02 01:08:44;;;;;;;25.17;14.35;;;;;;;1.00;71.01;101820.97;682269;28;137505;-61
2020/12/02 01:09:05;;;;;;;25.58;14.27;;;;;;;0.98;70.98;101816.72;685116;28;50414;-62
2020/12/02 01:09:27;;;;;;;29.00;15.70;;;;;;;0.98;71.16;101816.72;685186;28;46375;-61
2020/12/02 01:09:50;;;;;;;26.48;14.60;;;;;;;0.98;71.09;101816.72;685669;28;21529;-62
2020/12/02 01:10:12;;;;;;;25.20;14.38;;;;;;;0.97;71.01;101813.22;684515;28;67508;-61
2020/12/02 01:10:34;;;;;;;27.08;14.82;;;;;;;0.98;70.91;101822.03;684156;28;67548;-62
2020/12/02 01:11:02;;;;;;;26.50;15.02;;;;;;;0.95;70.77;101819.56;685307;28;40552;-61
2020/12/02 01:11:25;;;;;;;25.05;14.70;;;;;;;0.94;71.03;101821.38;682978;28;111197;-61
2020/12/02 01:11:49;;;;;;;24.60;14.55;;;;;;;0.93;71.14;101822.28;684791;28;51313;-61
2020/12/02 01:12:13;;;;;;;25.27;15.27;;;;;;;0.94;71.25;101820.47;683378;28;92366;-61
2020/12/02 01:12:36;;;;;;;25.65;14.63;;;;;;;0.95;71.25;101816.88;683072;28;106524;-61
2020/12/02 01:12:57;;;;;;;25.38;14.63;;;;;;;0.97;71.15;101815.88;684309;28;60958;-62
2020/12/02 01:13:19;;;;;;;23.58;14.07;;;;;;;0.96;71.32;101814.13;685554;28;23468;-61
2020/12/02 01:13:41;;;;;;;24.42;15.00;;;;;;;0.95;71.17;101822.22;685722;28;22399;-61
2020/12/02 01:14:05;;;;;;;25.92;15.30;;;;;;;0.95;71.30;101816.88;685216;28;43209;-61
2020/12/02 01:14:26;;;;;;;28.27;15.43;;;;;;;0.94;71.07;101823.16;683485;28;92305;-61
2020/12/02 01:14:48;;;;;;;26.60;14.77;;;;;;;0.93;71.01;101821.44;685196;28;46165;-61
2020/12/02 01:15:10;;;;;;;24.42;14.68;;;;;;;0.93;71.14;101822.28;685637;28;23495;-61
2020/12/02 01:15:32;;;;;;;29.65;15.75;;;;;;;0.93;71.20;101826.78;684268;28;70227;-61
2020/12/02 01:15:53;;;;;;;26.33;14.48;;;;;;;0.90;71.18;101822.47;685192;28;43381;-62
2020/12/02 01:16:18;;;;;;;29.13;15.35;;;;;;;0.90;71.23;101823.31;686057;28;22416;-61
2020/12/02 01:16:41;;;;;;;25.45;14.52;;;;;;;0.91;71.01;101824.19;682007;28;138878;-61
2020/12/02 01:17:03;;;;;;;24.77;14.43;;;;;;;0.92;71.20;101827.69;684518;28;69430;-62
2020/12/02 01:17:24;;;;;;;28.30;14.82;;;;;;;0.92;71.28;101820.56;686963;28;867;-60
2020/12/02 01:18:07;;;;;;;23.60;14.43;;;;;;;0.90;71.24;101825.13;684896;28;44175;-61
2020/12/02 01:18:29;;;;;;;25.42;14.85;;;;;;;0.89;71.43;101815.44;681699;28;138231;-62
2020/12/02 01:18:50;;;;;;;23.85;14.80;;;;;;;0.93;71.27;101826.78;685028;28;46431;-59
2020/12/02 01:19:14;;;;;;;25.98;14.80;;;;;;;0.91;71.52;101818.88;686049;28;22398;-61
2020/12/02 01:19:38;;;;;;;28.48;15.43;;;;;;;0.93;71.44;101824.97;683545;28;91882;-61
2020/12/02 01:19:59;;;;;;;29.48;14.93;;;;;;;0.94;71.59;101824.03;683161;28;92050;-61
2020/12/02 01:20:21;;;;;;;30.15;15.30;;;;;;;0.99;71.52;101826.41;685352;28;44382;-62
2020/12/02 01:20:42;;;;;;;26.00;14.57;;;;;;;1.00;71.51;101820.97;685171;28;38779;-61
2020/12/02 01:21:17;;;;;;;27.95;15.05;;;;;;;1.00;71.58;101817.47;685696;28;22410;-62
2020/12/02 01:21:42;;;;;;;27.67;15.85;;;;;;;1.01;71.45;101820.03;682394;28;121938;-60
2020/12/02 01:22:07;;;;;;;26.05;14.90;;;;;;;1.02;71.31;101818.22;681747;28;138821;-61
2020/12/02 01:22:33;;;;;;;25.23;15.00;;;;;;;1.03;71.53;101818.16;682625;28;113239;-62
2020/12/02 01:22:54;;;;;;;27.70;15.30;;;;;;;1.03;71.50;101822.63;683012;28;115410;-61
2020/12/02 01:23:15;;;;;;;27.75;15.05;;;;;;;1.04;71.37;101816.38;685947;28;23463;-62
2020/12/02 01:23:37;;;;;;;24.70;14.38;;;;;;;1.05;71.30;101820.72;684835;28;46451;-61
2020/12/02 01:24:01;;;;;;;26.63;15.32;;;;;;;1.07;71.23;101816.19;685064;28;46387;-62
2020/12/02 01:24:25;;;;;;;28.83;15.80;;;;;;;1.08;71.19;101812.56;684029;28;70255;-62
2020/12/02 01:24:51;;;;;;;28.48;14.57;;;;;;;1.07;71.20;101811.72;682611;28;115229;-61
2020/12/02 01:25:16;;;;;;;24.98;14.57;;;;;;;1.10;71.21;101809.81;682072;28;136428;-61
2020/12/02 01:25:38;;;;;;;28.55;15.20;;;;;;;1.11;70.78;101819.50;681182;28;139200;-61
2020/12/02 01:25:59;;;;;;;28.55;15.32;;;;;;;1.10;71.01;101813.34;684463;28;67871;-61
2020/12/02 01:26:23;;;;;;;27.00;15.25;;;;;;;1.10;70.87;101812.47;686242;28;22391;-61
2020/12/02 01:26:47;;;;;;;26.10;14.55;;;;;;;1.11;71.15;101811.53;683572;28;92169;-61
2020/12/02 01:27:13;;;;;;;24.13;14.65;;;;;;;1.12;71.02;101810.59;684345;28;69274;-61
2020/12/02 01:27:40;;;;;;;25.33;15.27;;;;;;;1.14;71.03;101811.34;681819;28;136357;-62
2020/12/02 01:28:04;;;;;;;25.85;14.55;;;;;;;1.13;71.06;101810.50;681737;28;138032;-61
2020/12/02 01:28:29;;;;;;;26.23;14.85;;;;;;;1.14;70.89;101801.56;682480;28;114618;-62
2020/12/02 01:28:51;;;;;;;29.20;15.60;;;;;;;1.14;70.88;101804.22;682743;28;115121;-62
2020/12/02 01:29:16;;;;;;;25.60;15.10;;;;;;;1.14;70.51;101800.72;682137;28;44379;-61
2020/12/02 01:29:39;;;;;;;25.60;14.70;;;;;;;1.12;70.70;101808.78;680425;28;91968;-59
2020/12/02 01:30:00;;;;;;;26.38;14.35;;;;;;;1.13;70.59;101806.97;681588;28;69540;-61
2020/12/02 01:30:22;;;;;;;25.77;14.45;;;;;;;1.11;70.52;101809.72;681907;28;46258;-61
2020/12/02 01:30:43;;;;;;;27.35;14.88;;;;;;;1.10;70.72;101813.34;682657;28;22458;-61
2020/12/02 01:31:05;;;;;;;28.77;15.32;;;;;;;1.11;70.67;101812.38;683380;28;46361;-62
2020/12/02 01:31:26;;;;;;;25.20;14.50;;;;;;;1.07;70.51;101806.38;685730;28;23351;-61
2020/12/02 01:31:53;;;;;;;26.77;14.50;;;;;;;1.04;70.45;101811.88;685640;28;32311;-62
2020/12/02 01:32:15;;;;;;;26.27;14.57;;;;;;;1.03;70.43;101815.47;682050;28;136404;-62
2020/12/02 01:32:36;;;;;;;26.67;14.63;;;;;;;1.01;70.47;101812.06;686091;28;22306;-61
2020/12/02 01:32:57;;;;;;;25.38;14.80;;;;;;;1.00;70.48;101818.31;685278;28;46256;-61
2020/12/02 01:33:18;;;;;;;24.42;14.75;;;;;;;0.99;70.52;101821.94;685967;28;22772;-61
2020/12/02 01:33:40;;;;;;;24.67;14.05;;;;;;;0.97;70.49;101817.66;685590;28;22402;-61
2020/12/02 01:34:02;;;;;;;26.92;15.50;;;;;;;0.97;70.44;101815.00;684784;28;45889;-60
2020/12/02 01:34:24;;;;;;;24.77;14.38;;;;;;;0.95;70.58;101817.75;686103;28;21712;-62
2020/12/02 01:34:47;;;;;;;24.40;14.10;;;;;;;0.93;70.54;101818.78;684595;28;69201;-62
2020/12/02 01:35:11;;;;;;;25.88;14.35;;;;;;;0.91;70.53;101810.91;684095;28;69191;-61
2020/12/02 01:35:33;;;;;;;26.48;14.75;;;;;;;0.89;70.67;101813.66;683674;28;92240;-61
2020/12/02 01:35:54;;;;;;;26.08;14.90;;;;;;;0.89;70.57;101821.63;685244;28;28427;-61
2020/12/02 01:36:19;;;;;;;24.33;14.50;;;;;;;0.86;70.55;101816.47;685496;28;20846;-60
2020/12/02 01:37:03;;;;;;;24.98;14.25;;;;;;;0.85;70.79;101819.22;682756;28;114685;-61
2020/12/02 01:37:31;;;;;;;29.38;14.88;;;;;;;0.85;70.73;101814.75;681636;28;135973;-61
2020/12/02 01:37:55;;;;;;;24.55;14.57;;;;;;;0.82;70.69;101817.59;681683;28;138020;-61
2020/12/02 01:38:22;;;;;;;24.58;14.25;;;;;;;0.81;70.77;101818.53;683221;28;92307;-61
2020/12/02 01:38:44;;;;;;;26.30;15.27;;;;;;;0.81;71.32;101815.00;681366;28;138403;-61
2020/12/02 01:39:06;;;;;;;27.00;14.88;;;;;;;0.81;71.00;101818.53;685197;28;45169;-61
2020/12/02 01:39:30;;;;;;;27.15;14.80;;;;;;;0.81;70.84;101817.66;685401;28;44404;-61
2020/12/02 01:39:59;;;;;;;24.75;14.93;;;;;;;0.79;70.90;101823.06;683785;28;92295;-61
2020/12/02 01:40:22;;;;;;;25.50;15.23;;;;;;;0.78;71.01;101820.50;681712;28;136405;-61
2020/12/02 01:40:43;;;;;;;27.33;15.73;;;;;;;0.78;71.01;101820.50;683996;28;69498;-61
2020/12/02 01:41:05;;;;;;;27.33;15.38;;;;;;;0.76;71.00;101817.94;684882;28;47530;-61
2020/12/02 01:41:26;;;;;;;27.20;15.30;;;;;;;0.76;71.10;101825.91;684884;28;46300;-61
2020/12/02 01:41:48;;;;;;;24.80;14.98;;;;;;;0.75;70.97;101826.00;686077;28;22423;-62
2020/12/02 01:42:10;;;;;;;27.52;15.07;;;;;;;0.74;71.11;101825.16;684419;28;45365;-61
2020/12/02 01:42:32;;;;;;;27.17;14.63;;;;;;;0.72;71.01;101819.03;684945;28;46415;-61
2020/12/02 01:42:56;;;;;;;26.08;14.63;;;;;;;0.73;71.06;101825.22;684644;28;42945;-61
2020/12/02 01:43:17;;;;;;;25.55;14.25;;;;;;;0.73;71.17;101830.56;683222;28;91098;-62
2020/12/02 01:43:39;;;;;;;24.75;14.20;;;;;;;0.72;71.00;101824.34;685788;28;23472;-61
2020/12/02 01:44:00;;;;;;;27.27;14.60;;;;;;;0.70;71.06;101821.78;685223;28;46330;-58
2020/12/02 01:44:22;;;;;;;28.93;15.40;;;;;;;0.70;71.25;101827.09;685845;28;22593;-61
2020/12/02 01:44:44;;;;;;;25.80;14.23;;;;;;;0.68;71.28;101822.84;684717;28;45770;-61
2020/12/02 01:45:14;;;;;;;26.00;15.10;;;;;;;0.67;71.21;101824.63;684778;28;45218;-60
2020/12/02 01:45:36;;;;;;;26.58;15.02;;;;;;;0.66;71.07;101825.56;681719;28;137716;-61
2020/12/02 01:46:03;;;;;;;26.75;15.15;;;;;;;0.65;71.09;101828.31;684414;28;46399;-61
2020/12/02 01:46:31;;;;;;;26.30;14.90;;;;;;;0.64;71.25;101827.47;682119;28;138044;-62
2020/12/02 01:47:00;;;;;;;23.67;14.38;;;;;;;0.62;71.24;101826.69;681678;28;136163;-62
2020/12/02 01:47:30;;;;;;;25.30;15.32;;;;;;;0.62;71.29;101823.19;681983;28;137918;-62